Time;durP1;ratioP1;P1;durP2;ratioP2;P2;SDS_P1;SDS_P2;PMS_P1;PMS_P2;Temp;Humidity;BMP_temperature;BMP_pressure;BME280_temperature;BME280_humidity;BME280_pressure;Samples;Min_cycle;Max_cycle;Signal;HPM_P1;HPM_P2
2023/09/10 00:00:53;;;;;;;;;39.00;35.67;;;;;23.90;51.21;101258.73;110208;1259;20145;-35
2023/09/10 00:03:40;;;;;;;;;39.00;35.50;;;;;23.85;51.27;101257.38;110196;1265;22225;-36
2023/09/10 00:06:08;;;;;;;;;42.50;37.00;;;;;23.84;51.36;101255.04;110074;1252;20526;-37
2023/09/10 00:08:35;;;;;;;;;38.00;36.00;;;;;23.85;51.04;101259.74;110201;1257;20514;-36
2023/09/10 00:11:02;;;;;;;;;42.00;38.00;;;;;23.82;51.40;101259.36;110185;1265;19768;-36
2023/09/10 00:13:30;;;;;;;;;35.00;33.00;;;;;23.77;51.53;101258.56;110166;1251;21322;-36
2023/09/10 00:15:57;;;;;;;;;42.00;39.00;;;;;23.78;51.53;101254.17;110186;1265;18792;-36
2023/09/10 00:18:25;;;;;;;;;36.00;35.00;;;;;23.75;51.64;101255.34;110157;1260;20864;-35
2023/09/10 00:20:52;;;;;;;;;37.00;36.00;;;;;23.80;51.68;101253.63;110163;1251;19959;-36
2023/09/10 00:23:19;;;;;;;;;39.00;36.00;;;;;23.78;51.48;101246.95;110202;1265;18728;-36
2023/09/10 00:25:47;;;;;;;;;42.00;35.00;;;;;23.71;51.80;101252.95;110192;1251;20793;-36
2023/09/10 00:28:15;;;;;;;;;39.50;36.00;;;;;23.76;51.94;101251.95;110019;1251;236966;-36
2023/09/10 00:30:42;;;;;;;;;37.00;32.00;;;;;23.73;51.78;101255.02;110213;1250;22662;-35
2023/09/10 00:33:09;;;;;;;;;38.00;36.00;;;;;23.69;52.13;101253.45;110163;1251;20780;-36
2023/09/10 00:35:37;;;;;;;;;40.00;36.00;;;;;23.72;52.09;101249.55;110152;1258;20142;-36
2023/09/10 00:38:04;;;;;;;;;43.50;40.50;;;;;23.63;52.24;101249.52;110183;1250;18746;-36
2023/09/10 00:40:31;;;;;;;;;41.00;36.00;;;;;23.62;52.34;101251.21;110186;1265;22290;-37
2023/09/10 00:42:59;;;;;;;;;36.00;33.00;;;;;23.66;51.98;101254.92;110183;1251;20100;-37
2023/09/10 00:45:26;;;;;;;;;34.50;33.00;;;;;23.62;52.35;101250.52;110161;1265;18723;-34
2023/09/10 00:47:53;;;;;;;;;38.00;35.50;;;;;23.62;52.39;101250.94;110076;1251;22355;-35
2023/09/10 00:50:21;;;;;;;;;39.00;36.00;;;;;23.62;52.34;101251.77;110178;1251;20021;-36
2023/09/10 00:52:49;;;;;;;;;43.00;36.00;;;;;23.63;52.07;101249.36;110166;1250;20179;-36
2023/09/10 00:55:16;;;;;;;;;42.00;38.00;;;;;23.55;52.48;101247.66;110174;1266;19355;-36
2023/09/10 00:57:43;;;;;;;;;36.67;34.67;;;;;23.53;52.45;101246.68;110175;1266;19034;-36
2023/09/10 01:00:12;;;;;;;;;40.00;38.67;;;;;23.52;52.55;101248.98;110174;1259;22228;-34
2023/09/10 01:02:43;;;;;;;;;38.00;34.00;;;;;23.52;52.53;101247.66;110172;1251;20814;-36
2023/09/10 01:05:10;;;;;;;;;46.00;39.00;;;;;23.52;52.71;101244.44;110091;1265;18855;-36
2023/09/10 01:07:38;;;;;;;;;43.50;39.50;;;;;23.50;52.67;101247.70;110039;1250;18664;-36
2023/09/10 01:10:05;;;;;;;;;41.00;36.00;;;;;23.50;52.68;101249.52;110092;1251;22067;-36
2023/09/10 01:12:32;;;;;;;;;45.00;39.00;;;;;23.50;52.78;101248.48;110175;1259;20036;-36
2023/09/10 01:15:00;;;;;;;;;41.00;41.00;;;;;23.48;52.59;101248.59;110142;1259;20197;-36
2023/09/10 01:17:27;;;;;;;;;41.00;39.00;;;;;23.44;52.80;101243.13;110141;1250;20823;-36
2023/09/10 01:19:54;;;;;;;;;38.00;36.00;;;;;23.44;52.85;101242.14;110176;1251;19954;-35
2023/09/10 01:22:22;;;;;;;;;38.00;35.00;;;;;23.44;52.64;101240.23;110189;1265;18846;-36
2023/09/10 01:24:49;;;;;;;;;37.50;34.00;;;;;23.45;52.77;101238.54;110171;1259;21299;-36
2023/09/10 01:27:16;;;;;;;;;39.00;38.00;;;;;23.43;52.75;101238.31;110137;1250;22731;-36
2023/09/10 01:29:43;;;;;;;;;43.00;37.00;;;;;23.44;52.71;101238.70;110163;1251;20081;-36
2023/09/10 01:32:11;;;;;;;;;42.50;40.50;;;;;23.36;52.84;101235.42;110183;1265;19327;-37
2023/09/10 01:34:38;;;;;;;;;41.50;37.50;;;;;23.36;52.78;101232.96;110170;1259;19999;-36
2023/09/10 01:37:06;;;;;;;;;39.00;37.00;;;;;23.35;52.88;101231.22;110165;1265;18758;-36
2023/09/10 01:39:36;;;;;;;;;38.50;36.00;;;;;23.34;53.06;101233.95;110109;1265;19347;-36
2023/09/10 01:42:03;;;;;;;;;43.00;38.00;;;;;23.33;53.20;101231.17;110185;1259;19886;-37
2023/09/10 01:44:31;;;;;;;;;45.50;41.00;;;;;23.30;52.85;101230.84;110167;1250;20110;-37
2023/09/10 01:46:59;;;;;;;;;38.00;37.00;;;;;23.32;53.03;101233.52;110232;1257;20653;-37
2023/09/10 01:49:26;;;;;;;;;46.00;40.00;;;;;23.30;53.30;101231.23;110164;1265;18581;-37
2023/09/10 01:51:53;;;;;;;;;43.00;39.00;;;;;23.28;53.11;101229.16;110181;1265;20439;-36
2023/09/10 01:54:21;;;;;;;;;42.00;36.00;;;;;23.31;52.99;101232.16;110199;1265;19184;-36
2023/09/10 01:56:48;;;;;;;;;41.50;35.00;;;;;23.28;52.88;101224.77;110185;1265;22715;-36
2023/09/10 01:59:15;;;;;;;;;37.00;35.00;;;;;23.21;53.37;101219.60;110174;1265;18689;-37
2023/09/10 02:01:43;;;;;;;;;38.00;35.00;;;;;23.17;53.29;101217.73;110150;1265;19498;-36
2023/09/10 02:04:10;;;;;;;;;39.67;36.00;;;;;23.21;53.09;101218.83;110169;1265;18629;-37
2023/09/10 02:06:37;;;;;;;;;41.00;38.00;;;;;23.18;53.23;101216.32;110177;1251;20221;-36
2023/09/10 02:09:05;;;;;;;;;41.00;38.00;;;;;23.16;53.61;101215.02;110177;1266;19414;-36
2023/09/10 02:11:32;;;;;;;;;40.67;38.00;;;;;23.17;53.56;101214.57;110199;1251;20104;-37
2023/09/10 02:13:59;;;;;;;;;40.00;37.00;;;;;23.18;53.63;101215.11;110164;1259;20148;-36
2023/09/10 02:16:27;;;;;;;;;40.00;38.00;;;;;23.14;53.61;101213.98;110155;1251;20785;-36
2023/09/10 02:18:54;;;;;;;;;43.00;40.00;;;;;23.15;53.32;101214.19;110177;1250;20028;-36
2023/09/10 02:21:21;;;;;;;;;41.50;39.50;;;;;23.14;53.45;101209.55;110170;1251;20059;-35
2023/09/10 02:23:48;;;;;;;;;40.00;40.00;;;;;23.10;53.63;101211.73;110171;1266;19465;-35
2023/09/10 02:26:16;;;;;;;;;42.00;41.00;;;;;23.08;53.68;101209.94;110188;1251;22338;-36
2023/09/10 02:28:44;;;;;;;;;41.00;37.00;;;;;23.07;53.92;101214.31;110193;1250;20351;-36
2023/09/10 02:31:11;;;;;;;;;45.50;37.00;;;;;23.09;53.63;101214.47;110070;1250;19338;-36
2023/09/10 02:33:38;;;;;;;;;41.33;38.33;;;;;23.10;53.38;101215.02;110005;1265;18686;-36
2023/09/10 02:36:06;;;;;;;;;42.00;39.50;;;;;23.11;53.63;101213.48;110172;1265;21020;-35
2023/09/10 02:38:34;;;;;;;;;43.00;40.00;;;;;23.10;53.58;101214.30;110176;1265;19365;-35
2023/09/10 02:41:02;;;;;;;;;41.00;36.00;;;;;23.11;53.32;101214.25;110191;1251;20011;-36
2023/09/10 02:43:29;;;;;;;;;46.00;41.00;;;;;23.11;53.22;101212.98;110177;1265;19986;-36
2023/09/10 02:45:57;;;;;;;;;41.00;38.00;;;;;23.09;53.56;101214.09;110177;1253;20777;-36
2023/09/10 02:48:24;;;;;;;;;40.00;37.33;;;;;23.07;53.62;101210.54;110179;1265;18744;-37
2023/09/10 02:50:53;;;;;;;;;38.00;37.00;;;;;23.07;53.62;101209.02;110191;1265;18777;-36
2023/09/10 02:53:21;;;;;;;;;42.00;40.00;;;;;23.04;53.76;101208.08;110178;1259;20872;-36
2023/09/10 02:55:48;;;;;;;;;47.50;42.00;;;;;22.99;54.01;101205.84;110181;1251;22830;-37
2023/09/10 02:58:15;;;;;;;;;44.50;38.50;;;;;22.97;54.00;101206.39;110180;1265;18774;-36
2023/09/10 03:00:43;;;;;;;;;50.00;44.00;;;;;22.97;53.91;101203.39;110174;1265;19312;-35
2023/09/10 03:03:10;;;;;;;;;42.00;38.50;;;;;22.99;54.04;101208.09;110062;1265;18612;-35
2023/09/10 03:05:37;;;;;;;;;45.00;41.00;;;;;22.93;54.08;101205.36;110186;1259;20549;-36
2023/09/10 03:08:05;;;;;;;;;44.00;41.00;;;;;22.92;53.99;101205.52;110143;1265;19306;-36
2023/09/10 03:10:32;;;;;;;;;42.33;38.33;;;;;22.88;54.37;101205.85;110169;1265;20061;-36
2023/09/10 03:12:59;;;;;;;;;45.67;41.33;;;;;22.87;54.28;101202.63;110177;1259;19063;-36
2023/09/10 03:15:27;;;;;;;;;40.00;39.00;;;;;22.90;54.12;101205.90;110167;1265;20840;-36
2023/09/10 03:17:54;;;;;;;;;44.00;40.00;;;;;22.86;53.94;101205.69;110165;1250;20052;-36
2023/09/10 03:20:21;;;;;;;;;45.00;41.00;;;;;22.84;54.20;101203.99;110185;1253;22272;-35
2023/09/10 03:22:50;;;;;;;;;42.00;39.00;;;;;22.79;54.22;101200.90;110184;1259;20943;-36
2023/09/10 03:25:17;;;;;;;;;43.00;40.50;;;;;22.80;54.30;101198.89;110148;1250;20103;-36
2023/09/10 03:27:44;;;;;;;;;49.50;40.00;;;;;22.81;54.16;101198.45;110179;1265;22203;-36
2023/09/10 03:30:12;;;;;;;;;43.00;40.00;;;;;22.80;54.14;101197.47;110188;1259;20767;-36
2023/09/10 03:32:39;;;;;;;;;46.00;40.00;;;;;22.75;54.12;101196.04;110173;1265;18634;-37
2023/09/10 03:35:06;;;;;;;;;43.50;39.50;;;;;22.75;54.28;101197.90;110180;1251;21748;-36
2023/09/10 03:37:34;;;;;;;;;47.50;42.00;;;;;22.64;54.66;101194.01;110175;1251;22364;-37
2023/09/10 03:40:04;;;;;;;;;47.00;42.00;;;;;22.67;54.57;101194.66;110174;1259;19925;-37
2023/09/10 03:42:31;;;;;;;;;46.00;42.00;;;;;22.64;54.70;101193.56;110199;1265;20191;-36
2023/09/10 03:44:58;;;;;;;;;43.00;42.00;;;;;22.61;54.57;101189.25;110160;1259;20689;-36
2023/09/10 03:47:28;;;;;;;;;39.50;36.50;;;;;22.63;54.49;101188.38;110176;1251;20028;-36
2023/09/10 03:49:55;;;;;;;;;43.00;38.50;;;;;22.67;54.44;101188.48;110111;1251;20147;-35
2023/09/10 03:52:22;;;;;;;;;42.00;38.00;;;;;22.67;54.39;101191.06;110044;1258;20728;-35
2023/09/10 03:54:50;;;;;;;;;46.50;42.00;;;;;22.66;54.39;101183.24;110183;1250;19921;-35
2023/09/10 03:57:17;;;;;;;;;45.00;41.50;;;;;22.62;54.62;101189.20;110177;1251;20210;-35
2023/09/10 03:59:44;;;;;;;;;42.00;39.00;;;;;22.61;54.63;101188.81;110186;1250;22003;-35
2023/09/10 04:02:12;;;;;;;;;45.00;42.00;;;;;22.59;54.49;101187.61;110144;1259;21277;-35
2023/09/10 04:04:39;;;;;;;;;47.50;41.00;;;;;22.61;54.71;101185.76;110157;1250;20235;-35
2023/09/10 04:07:07;;;;;;;;;46.50;39.00;;;;;22.63;54.57;101186.69;110163;1259;20723;-36
2023/09/10 04:09:34;;;;;;;;;40.00;38.00;;;;;22.64;54.40;101186.69;110173;1251;19979;-35
2023/09/10 04:12:01;;;;;;;;;53.00;45.00;;;;;22.59;54.68;101181.33;110163;1251;20171;-36
2023/09/10 04:14:30;;;;;;;;;51.50;44.50;;;;;22.58;54.49;101182.20;110169;1251;20783;-36
2023/09/10 04:16:58;;;;;;;;;47.00;44.00;;;;;22.56;54.61;101178.49;110169;1251;20047;-36
2023/09/10 04:19:25;;;;;;;;;46.50;42.00;;;;;22.54;54.65;101177.34;110142;1265;19188;-36
2023/09/10 04:21:52;;;;;;;;;48.67;42.00;;;;;22.51;54.81;101177.34;110181;1265;19268;-36
2023/09/10 04:24:20;;;;;;;;;47.00;43.00;;;;;22.51;54.78;101175.43;110181;1265;18616;-36
2023/09/10 04:26:47;;;;;;;;;49.00;43.00;;;;;22.51;54.81;101174.61;110039;1259;20287;-36
2023/09/10 04:29:15;;;;;;;;;47.00;42.00;;;;;22.50;54.71;101177.34;110049;1251;21021;-36
2023/09/10 04:31:42;;;;;;;;;49.00;44.00;;;;;22.46;54.64;101181.27;110165;1251;20126;-36
2023/09/10 04:34:09;;;;;;;;;50.50;44.00;;;;;22.42;54.78;101184.64;110162;1249;20268;-36
2023/09/10 04:36:37;;;;;;;;;44.00;41.00;;;;;22.45;54.88;101184.48;110189;1265;19431;-36
2023/09/10 04:39:08;;;;;;;;;48.67;44.33;;;;;22.45;54.98;101183.89;110173;1265;18580;-37
2023/09/10 04:41:35;;;;;;;;;49.33;45.00;;;;;22.17;55.58;101186.10;110180;1251;20151;-36
2023/09/10 04:44:02;;;;;;;;;51.00;45.00;;;;;22.02;56.04;101188.96;110187;1249;21905;-35
2023/09/10 04:46:30;;;;;;;;;48.00;45.00;;;;;21.89;56.38;101186.81;110176;1258;20150;-35
2023/09/10 04:48:57;;;;;;;;;49.50;43.00;;;;;21.83;56.69;101190.50;110082;1259;21238;-35
2023/09/10 04:51:24;;;;;;;;;44.00;41.50;;;;;21.82;56.82;101184.23;110175;1265;19378;-35
2023/09/10 04:53:52;;;;;;;;;45.00;40.00;;;;;22.00;56.21;101189.53;110185;1251;20069;-35
2023/09/10 04:56:19;;;;;;;;;48.00;45.00;;;;;22.05;56.34;101197.58;110204;1250;20353;-36
2023/09/10 04:58:46;;;;;;;;;45.00;41.00;;;;;22.06;56.33;101198.41;110208;1266;20740;-36
2023/09/10 05:01:14;;;;;;;;;50.50;44.50;;;;;21.90;56.72;101202.96;110154;1265;22309;-36
2023/09/10 05:03:42;;;;;;;;;48.50;44.50;;;;;22.01;56.47;101205.95;110182;1251;20119;-36
2023/09/10 05:06:09;;;;;;;;;52.33;43.00;;;;;21.96;56.62;101205.02;110173;1251;20928;-36
2023/09/10 05:08:37;;;;;;;;;51.50;45.00;;;;;21.97;56.35;101206.65;110190;1265;18683;-36
2023/09/10 05:11:04;;;;;;;;;52.67;43.33;;;;;22.02;56.59;101208.81;110165;1251;20164;-36
2023/09/10 05:13:32;;;;;;;;;43.50;40.50;;;;;21.91;56.80;101205.43;110141;1251;20789;-36
2023/09/10 05:15:59;;;;;;;;;46.00;42.00;;;;;21.95;56.55;101210.84;110175;1250;20026;-36
2023/09/10 05:18:26;;;;;;;;;54.00;43.00;;;;;21.83;57.04;101211.66;110178;1259;20366;-36
2023/09/10 05:20:54;;;;;;;;;54.00;44.67;;;;;21.66;57.63;101212.51;110166;1250;20811;-35
2023/09/10 05:23:21;;;;;;;;;48.00;44.33;;;;;21.73;57.50;101208.89;110165;1250;19993;-36
2023/09/10 05:25:49;;;;;;;;;55.33;45.67;;;;;21.75;57.54;101209.11;110151;1265;18776;-35
2023/09/10 05:28:16;;;;;;;;;50.00;45.00;;;;;21.85;57.31;101211.13;110071;1250;23077;-35
2023/09/10 05:30:43;;;;;;;;;52.00;44.50;;;;;21.78;57.62;101208.75;110153;1265;18556;-35
2023/09/10 05:33:11;;;;;;;;;53.00;46.00;;;;;21.66;57.90;101207.88;110151;1265;18796;-36
2023/09/10 05:35:38;;;;;;;;;46.00;43.00;;;;;21.56;58.11;101210.87;110135;1259;20576;-35
2023/09/10 05:38:05;;;;;;;;;55.00;46.50;;;;;21.55;58.35;101213.05;110159;1250;20010;-36
2023/09/10 05:40:36;;;;;;;;;57.00;46.50;;;;;21.58;58.14;101213.17;110176;1265;18781;-35
2023/09/10 05:43:03;;;;;;;;;58.00;47.00;;;;;21.37;58.96;101214.30;110176;1254;19469;-36
2023/09/10 05:45:31;;;;;;;;;48.50;44.00;;;;;21.32;59.01;101216.75;110166;1251;21215;-35
2023/09/10 05:47:58;;;;;;;;;52.00;46.00;;;;;21.43;58.77;101217.61;110161;1250;19041;-35
2023/09/10 05:50:25;;;;;;;;;51.00;44.00;;;;;21.60;58.36;101219.19;110174;1265;19368;-35
2023/09/10 05:52:55;;;;;;;;;56.00;46.00;;;;;21.64;58.31;101222.80;110159;1251;20068;-34
2023/09/10 05:55:24;;;;;;;;;51.00;46.50;;;;;21.69;58.23;101227.52;110178;1265;18759;-35
2023/09/10 05:57:51;;;;;;;;;54.00;46.00;;;;;21.55;58.45;101228.64;110135;1250;19363;-35
2023/09/10 06:00:18;;;;;;;;;59.00;47.00;;;;;21.60;58.38;101227.52;110069;1252;21182;-35
2023/09/10 06:02:45;;;;;;;;;58.50;49.50;;;;;21.62;58.54;101222.80;110164;1251;20120;-35
2023/09/10 06:05:13;;;;;;;;;57.00;48.00;;;;;21.59;58.61;101223.05;110141;1250;20901;-35
2023/09/10 06:07:40;;;;;;;;;52.00;46.00;;;;;21.47;59.13;101222.27;110171;1257;18576;-35
2023/09/10 06:10:09;;;;;;;;;56.00;48.00;;;;;21.48;59.21;101218.85;110169;1265;20387;-35
2023/09/10 06:12:37;;;;;;;;;52.00;44.00;;;;;21.51;59.14;101215.64;110203;1251;20804;-36
2023/09/10 06:15:04;;;;;;;;;55.00;46.50;;;;;21.66;58.66;101219.33;110164;1259;19906;-36
2023/09/10 06:17:32;;;;;;;;;59.50;48.00;;;;;21.64;58.83;101215.98;110197;1251;20239;-35
2023/09/10 06:19:59;;;;;;;;;57.00;47.50;;;;;21.77;58.64;101211.69;110178;1265;19708;-36
2023/09/10 06:22:26;;;;;;;;;56.00;45.50;;;;;21.88;58.54;101213.87;110188;1265;19928;-36
2023/09/10 06:24:54;;;;;;;;;54.50;49.00;;;;;21.86;58.71;101216.42;110147;1265;20174;-36
2023/09/10 06:27:21;;;;;;;;;53.00;47.00;;;;;22.04;58.09;101219.41;110145;1251;20784;-35
2023/09/10 06:29:48;;;;;;;;;56.50;47.00;;;;;21.98;58.21;101220.35;110172;1265;18599;-36
2023/09/10 06:32:16;;;;;;;;;50.00;44.00;;;;;22.17;57.92;101218.97;110163;1265;18794;-35
2023/09/10 06:34:43;;;;;;;;;43.00;43.00;;;;;22.11;58.26;101219.16;110112;1250;20859;-35
2023/09/10 06:37:10;;;;;;;;;52.00;44.50;;;;;22.26;58.05;101216.16;110153;1257;18557;-35
2023/09/10 06:39:39;;;;;;;;;48.00;45.00;;;;;22.28;57.87;101219.66;110186;1266;22931;-35
2023/09/10 06:42:06;;;;;;;;;55.00;46.67;;;;;22.24;57.97;101212.77;110181;1265;19580;-36
2023/09/10 06:44:33;;;;;;;;;43.00;42.00;;;;;22.17;58.31;101219.19;110105;1259;19988;-35
2023/09/10 06:47:01;;;;;;;;;54.00;44.00;;;;;22.43;58.08;101219.48;110080;1251;20186;-36
2023/09/10 06:49:28;;;;;;;;;61.00;48.00;;;;;22.52;57.66;101219.60;110206;1266;20549;-35
2023/09/10 06:51:56;;;;;;;;;55.00;46.00;;;;;22.49;57.87;101217.85;110153;1250;21697;-35
2023/09/10 06:54:24;;;;;;;;;53.00;45.00;;;;;22.56;57.53;101220.05;110189;1251;20165;-35
2023/09/10 06:56:52;;;;;;;;;49.50;45.00;;;;;22.61;57.46;101216.50;110186;1251;20913;-35
2023/09/10 06:59:19;;;;;;;;;57.00;46.00;;;;;22.76;57.30;101217.89;110137;1265;18659;-35
2023/09/10 07:01:46;;;;;;;;;49.00;45.00;;;;;22.81;57.08;101217.31;110158;1251;20270;-35
2023/09/10 07:04:14;;;;;;;;;49.50;43.00;;;;;22.81;57.09;101220.05;110179;1259;20666;-36
2023/09/10 07:06:41;;;;;;;;;55.00;45.50;;;;;22.93;56.95;101218.46;110166;1265;18562;-35
2023/09/10 07:09:10;;;;;;;;;42.50;41.00;;;;;22.84;57.32;101218.41;110170;1251;18775;-35
2023/09/10 07:11:38;;;;;;;;;51.00;43.00;;;;;22.98;57.04;101212.35;110169;1249;20761;-35
2023/09/10 07:14:05;;;;;;;;;43.00;40.00;;;;;22.93;56.88;101209.39;110167;1265;22649;-35
2023/09/10 07:16:32;;;;;;;;;39.33;34.00;;;;;23.13;56.54;101206.21;110176;1251;20117;-36
2023/09/10 07:19:00;;;;;;;;;43.00;39.50;;;;;23.38;56.15;101205.84;110127;1265;22612;-36
2023/09/10 07:21:27;;;;;;;;;35.00;32.00;;;;;23.55;55.94;101209.42;110069;1251;20142;-35
2023/09/10 07:23:54;;;;;;;;;34.00;31.50;;;;;23.67;55.59;101209.73;110120;1265;18843;-36
2023/09/10 07:26:22;;;;;;;;;37.50;32.50;;;;;23.76;55.26;101207.68;110160;1265;19334;-36
2023/09/10 07:28:49;;;;;;;;;32.67;28.33;;;;;23.84;55.14;101206.98;110154;1251;19985;-36
2023/09/10 07:31:16;;;;;;;;;29.50;27.50;;;;;23.94;54.48;101206.52;110150;1250;20213;-36
2023/09/10 07:33:44;;;;;;;;;32.00;30.00;;;;;23.98;54.50;101205.19;110169;1265;19367;-36
2023/09/10 07:36:11;;;;;;;;;28.00;27.00;;;;;24.03;54.39;101208.44;110168;1251;21279;-36
2023/09/10 07:38:38;;;;;;;;;27.00;25.00;;;;;24.06;54.10;101206.80;110153;1250;20219;-36
2023/09/10 07:41:06;;;;;;;;;24.00;24.00;;;;;24.09;53.97;101205.61;110177;1251;21949;-36
2023/09/10 07:43:33;;;;;;;;;25.00;24.00;;;;;24.12;54.20;101203.20;110109;1251;20003;-36
2023/09/10 07:46:00;;;;;;;;;21.00;20.50;;;;;24.18;53.88;101203.88;110101;1265;20355;-35
2023/09/10 07:48:28;;;;;;;;;24.00;22.00;;;;;24.19;53.84;101200.64;110120;1265;22181;-36
2023/09/10 07:50:55;;;;;;;;;21.50;21.00;;;;;24.24;53.50;101202.20;110145;1265;18572;-36
2023/09/10 07:53:23;;;;;;;;;24.00;23.00;;;;;24.26;53.63;101197.00;110140;1265;18870;-35
2023/09/10 07:55:50;;;;;;;;;21.00;20.00;;;;;24.30;53.52;101195.79;110113;1251;20729;-36
2023/09/10 07:58:17;;;;;;;;;21.00;18.00;;;;;24.32;53.42;101198.23;110168;1250;20028;-35
2023/09/10 08:00:44;;;;;;;;;20.00;17.33;;;;;24.34;53.25;101195.55;110173;1265;18949;-36
2023/09/10 08:03:14;;;;;;;;;17.00;16.00;;;;;24.38;53.14;101189.87;110166;1259;21714;-36
2023/09/10 08:05:42;;;;;;;;;;;;;;;24.39;53.23;101188.94;110172;1266;18744;-36
2023/09/10 08:08:09;;;;;;;;;17.00;16.33;;;;;24.41;53.10;101192.65;110192;1251;20099;-36
2023/09/10 08:10:36;;;;;;;;;21.00;16.00;;;;;24.44;53.10;101195.04;110208;1265;19510;-36
2023/09/10 08:13:04;;;;;;;;;17.00;16.00;;;;;24.46;53.10;101193.55;110170;1265;18802;-36
2023/09/10 08:15:31;;;;;;;;;17.00;15.50;;;;;24.48;52.93;101191.45;110148;1250;20144;-36
2023/09/10 08:17:59;;;;;;;;;14.00;13.00;;;;;24.52;52.90;101190.77;110174;1251;20775;-36
2023/09/10 08:20:26;;;;;;;;;14.00;12.00;;;;;24.51;52.79;101188.15;110174;1265;18675;-36
2023/09/10 08:22:54;;;;;;;;;18.00;14.00;;;;;24.54;52.87;101188.73;110174;1251;20217;-36
2023/09/10 08:25:21;;;;;;;;;16.00;14.00;;;;;24.53;52.71;101187.27;110122;1251;20798;-36
2023/09/10 08:27:49;;;;;;;;;13.50;12.50;;;;;24.57;53.04;101185.64;110145;1251;20054;-36
2023/09/10 08:30:16;;;;;;;;;13.50;13.00;;;;;24.58;52.69;101183.55;110150;1266;20948;-36
2023/09/10 08:32:45;;;;;;;;;13.00;12.00;;;;;24.58;52.67;101184.71;110142;1265;19338;-36
2023/09/10 08:35:13;;;;;;;;;13.50;13.00;;;;;24.61;52.80;101185.66;110147;1265;19317;-36
2023/09/10 08:37:40;;;;;;;;;9.33;9.33;;;;;24.62;52.74;101187.52;110172;1259;18877;-36
2023/09/10 08:40:08;;;;;;;;;13.00;12.00;;;;;24.63;52.79;101188.12;110168;1265;21745;-36
2023/09/10 08:42:35;;;;;;;;;11.00;11.00;;;;;24.63;52.52;101187.67;110144;1250;19548;-36
2023/09/10 08:45:03;;;;;;;;;10.50;10.50;;;;;24.66;52.78;101186.61;110093;1265;18775;-36
2023/09/10 08:47:30;;;;;;;;;11.00;10.00;;;;;24.66;52.58;101185.52;110147;1249;20852;-36
2023/09/10 08:49:57;;;;;;;;;11.00;11.00;;;;;24.65;52.79;101181.52;110141;1252;20013;-36
2023/09/10 08:52:24;;;;;;;;;13.33;10.00;;;;;24.67;52.46;101184.25;110144;1251;21299;-36
2023/09/10 08:54:52;;;;;;;;;13.00;10.00;;;;;24.66;52.60;101178.56;110146;1265;19361;-36
2023/09/10 08:57:19;;;;;;;;;11.00;10.00;;;;;24.67;52.66;101176.63;110117;1265;20338;-36
2023/09/10 08:59:46;;;;;;;;;7.50;7.50;;;;;24.66;52.78;101177.41;110120;1265;18708;-36
2023/09/10 09:02:14;;;;;;;;;9.00;9.00;;;;;24.65;52.74;101176.48;110123;1265;19395;-36
2023/09/10 09:04:41;;;;;;;;;10.00;8.50;;;;;24.69;52.61;101175.58;110151;1265;18475;-36
2023/09/10 09:07:09;;;;;;;;;8.00;8.00;;;;;24.69;52.51;101176.12;110155;1265;18653;-36
2023/09/10 09:09:39;;;;;;;;;7.00;7.00;;;;;24.69;52.51;101173.60;110146;1249;20780;-36
2023/09/10 09:12:06;;;;;;;;;8.50;6.50;;;;;24.68;52.66;101173.51;110157;1259;19512;-37
2023/09/10 09:14:36;;;;;;;;;6.00;6.00;;;;;24.69;52.71;101173.22;110186;1259;20116;-35
2023/09/10 09:17:03;;;;;;;;;8.33;8.33;;;;;24.72;52.63;101170.84;110209;1249;20716;-36
2023/09/10 09:19:31;;;;;;;;;6.00;6.00;;;;;24.70;52.53;101169.10;110188;1265;18641;-36
2023/09/10 09:21:58;;;;;;;;;9.00;8.00;;;;;24.69;53.03;101172.67;110183;1249;19919;-36
2023/09/10 09:24:25;;;;;;;;;6.50;6.50;;;;;24.73;53.20;101164.58;110178;1259;20994;-35
2023/09/10 09:26:53;;;;;;;;;6.00;6.00;;;;;24.75;53.33;101167.09;110123;1253;20816;-35
2023/09/10 09:29:20;;;;;;;;;7.50;7.00;;;;;24.72;53.83;101161.09;110062;1265;18644;-35
2023/09/10 09:31:47;;;;;;;;;7.00;7.00;;;;;24.77;53.97;101159.30;110202;1250;20774;-35
2023/09/10 09:34:15;;;;;;;;;5.50;5.50;;;;;24.75;54.39;101153.23;110178;1251;19659;-36
2023/09/10 09:36:42;;;;;;;;;6.50;6.00;;;;;24.73;54.54;101155.38;110153;1251;20094;-35
2023/09/10 09:39:11;;;;;;;;;8.00;6.50;;;;;24.77;54.40;101155.23;110111;1265;19359;-35
2023/09/10 09:41:39;;;;;;;;;6.67;5.33;;;;;24.79;54.12;101146.17;110046;1251;19639;-35
2023/09/10 09:44:06;;;;;;;;;6.00;6.00;;;;;24.79;54.21;101144.64;110114;1265;22661;-35
2023/09/10 09:46:33;;;;;;;;;6.00;6.00;;;;;24.83;54.30;101142.96;110164;1265;19449;-36
2023/09/10 09:49:01;;;;;;;;;9.00;7.00;;;;;24.83;54.27;101141.86;110135;1250;20845;-35
2023/09/10 09:51:28;;;;;;;;;6.00;6.00;;;;;24.81;54.43;101144.40;110174;1250;20654;-35
2023/09/10 09:53:56;;;;;;;;;5.50;5.00;;;;;24.82;54.74;101142.03;110142;1250;20937;-35
2023/09/10 09:56:23;;;;;;;;;6.00;5.00;;;;;24.82;54.97;101142.81;110211;1250;18453;-35
2023/09/10 09:58:51;;;;;;;;;6.00;5.00;;;;;24.83;54.98;101145.70;110184;1250;21244;-35
2023/09/10 10:01:18;;;;;;;;;5.50;5.50;;;;;24.84;54.70;101141.15;110157;1265;19368;-36
2023/09/10 10:03:45;;;;;;;;;6.00;5.00;;;;;24.84;54.62;101137.69;110224;1250;19838;-36
2023/09/10 10:06:12;;;;;;;;;5.00;5.00;;;;;24.81;55.17;101139.59;110121;1251;21211;-36
2023/09/10 10:08:40;;;;;;;;;4.00;4.00;;;;;24.80;55.01;101134.60;110159;1251;20816;-35
2023/09/10 10:11:07;;;;;;;;;5.00;5.00;;;;;24.82;54.99;101135.90;110117;1265;19613;-36
2023/09/10 10:13:35;;;;;;;;;3.00;3.00;;;;;24.80;54.80;101133.17;110119;1250;20979;-36
2023/09/10 10:16:02;;;;;;;;;6.00;6.00;;;;;24.80;54.78;101131.64;110194;1253;21189;-35
2023/09/10 10:18:29;;;;;;;;;5.00;5.00;;;;;24.77;55.25;101129.21;110169;1265;19865;-35
2023/09/10 10:20:57;;;;;;;;;5.00;5.00;;;;;24.81;55.41;101127.09;110171;1253;20071;-36
2023/09/10 10:23:24;;;;;;;;;6.50;5.50;;;;;24.85;55.49;101124.91;110179;1250;20807;-35
2023/09/10 10:25:52;;;;;;;;;6.33;6.00;;;;;24.87;55.59;101127.73;110182;1265;19881;-36
2023/09/10 10:28:20;;;;;;;;;5.50;5.50;;;;;24.90;55.62;101127.55;110159;1265;18979;-35
2023/09/10 10:30:47;;;;;;;;;5.00;5.00;;;;;24.94;55.49;101122.14;110111;1251;20733;-36
2023/09/10 10:33:14;;;;;;;;;6.00;5.00;;;;;24.93;55.80;101118.59;110088;1251;19670;-35
2023/09/10 10:35:43;;;;;;;;;5.00;5.00;;;;;24.95;55.91;101109.04;110072;1266;19559;-36
2023/09/10 10:38:11;;;;;;;;;5.00;5.00;;;;;24.97;55.97;101108.16;110144;1265;19518;-35
2023/09/10 10:40:38;;;;;;;;;83.00;60.00;;;;;24.93;56.15;101105.44;110258;1250;23966;-36
2023/09/10 10:43:05;;;;;;;;;392.00;270.00;;;;;24.96;56.06;101102.73;110239;1257;19964;-36
2023/09/10 10:45:33;;;;;;;;;423.50;299.50;;;;;24.93;56.12;101103.46;110194;1257;21904;-37
2023/09/10 10:48:00;;;;;;;;;4362.50;4362.50;;;;;24.91;55.98;101095.64;110163;1259;20306;-37
2023/09/10 10:50:27;;;;;;;;;449.67;305.67;;;;;24.95;56.05;101096.38;110185;1249;20546;-37
2023/09/10 10:52:55;;;;;;;;;416.00;289.00;;;;;24.97;55.83;101092.77;110193;1265;22284;-37
2023/09/10 10:55:22;;;;;;;;;349.33;251.00;;;;;24.97;55.87;101093.14;110176;1265;18920;-35
2023/09/10 10:57:50;;;;;;;;;329.00;233.50;;;;;24.99;55.94;101093.46;110170;1250;20128;-37
2023/09/10 11:00:17;;;;;;;;;299.50;218.50;;;;;24.99;55.99;101092.09;110189;1256;19410;-37
2023/09/10 11:02:44;;;;;;;;;266.00;197.33;;;;;24.99;55.86;101090.66;110229;1257;20248;-37
2023/09/10 11:05:12;;;;;;;;;266.00;189.00;;;;;25.00;55.74;101089.00;110190;1249;21792;-36